createdAt,value
2023-05-04T00:00:28.889Z,14.32
2023-05-04T00:02:57.037Z,11.88
2023-05-04T00:05:25.140Z,11.80
2023-05-04T00:07:53.173Z,10.50
2023-05-04T00:10:23.110Z,15.00
2023-05-04T00:12:51.170Z,16.30
2023-05-04T00:15:19.454Z,8.27
2023-05-04T00:17:47.583Z,14.20
2023-05-04T00:20:15.657Z,16.15
2023-05-04T00:22:43.656Z,12.38
2023-05-04T00:25:12.128Z,10.93
2023-05-04T00:27:41.519Z,9.70
2023-05-04T00:30:11.274Z,8.38
2023-05-04T00:32:39.290Z,13.95
2023-05-04T00:35:08.305Z,11.43
2023-05-04T00:37:36.396Z,9.75
2023-05-04T00:40:04.900Z,12.05
2023-05-04T00:42:33.145Z,9.75
2023-05-04T00:45:02.645Z,11.32
2023-05-04T00:47:30.897Z,9.23
2023-05-04T00:49:59.051Z,13.82
2023-05-04T00:52:27.121Z,10.60
2023-05-04T00:54:56.048Z,14.18
2023-05-04T00:57:24.320Z,13.38
2023-05-04T00:59:52.342Z,13.63
2023-05-04T01:02:21.966Z,10.40
2023-05-04T01:04:50.099Z,14.85
2023-05-04T01:07:29.680Z,13.27
2023-05-04T01:10:03.455Z,12.35
2023-05-04T01:12:36.960Z,11.52
2023-05-04T01:15:05.909Z,14.75
2023-05-04T01:17:35.463Z,11.23
2023-05-04T01:20:04.268Z,14.07
2023-05-04T01:22:33.931Z,12.23
2023-05-04T01:25:02.048Z,9.27
2023-05-04T01:27:36.258Z,10.07
2023-05-04T01:30:08.870Z,15.85
2023-05-04T01:32:38.129Z,17.45
2023-05-04T01:35:06.763Z,16.85
2023-05-04T01:37:36.215Z,15.02
2023-05-04T01:40:05.501Z,11.00
2023-05-04T01:42:33.914Z,14.68
2023-05-04T01:45:03.439Z,10.38
2023-05-04T01:47:31.725Z,13.13
2023-05-04T01:49:59.836Z,10.32
2023-05-04T01:52:27.924Z,15.10
2023-05-04T01:54:57.387Z,18.50
2023-05-04T01:57:25.407Z,12.70
2023-05-04T01:59:53.482Z,10.32
2023-05-04T02:02:21.588Z,15.40
2023-05-04T02:04:49.628Z,14.52
2023-05-04T02:07:17.681Z,15.45
2023-05-04T02:09:45.703Z,14.25
2023-05-04T02:12:15.081Z,17.15
2023-05-04T02:14:43.117Z,19.80
2023-05-04T02:17:11.114Z,10.07
2023-05-04T02:19:39.193Z,15.98
2023-05-04T02:22:07.195Z,13.27
2023-05-04T02:24:35.982Z,12.80
2023-05-04T02:27:04.067Z,11.75
2023-05-04T02:29:33.547Z,10.48
2023-05-04T02:32:01.669Z,11.95
2023-05-04T02:34:30.337Z,15.15
2023-05-04T02:36:58.380Z,9.02
2023-05-04T02:39:26.465Z,11.85
2023-05-04T02:41:54.491Z,12.38
2023-05-04T02:44:22.574Z,14.02
2023-05-04T02:46:51.940Z,12.07
2023-05-04T02:49:19.964Z,12.05
2023-05-04T02:51:48.449Z,16.95
2023-05-04T02:54:16.452Z,11.25
2023-05-04T02:56:44.444Z,10.55
2023-05-04T02:59:12.436Z,18.88
2023-05-04T03:01:40.523Z,13.60
2023-05-04T03:04:10.052Z,13.00
2023-05-04T03:06:38.069Z,10.43
2023-05-04T03:09:06.134Z,12.68
2023-05-04T03:11:34.211Z,14.98
2023-05-04T03:14:02.265Z,14.25
2023-05-04T03:16:30.362Z,13.50
2023-05-04T03:18:58.441Z,15.15
2023-05-04T03:21:27.797Z,13.70
2023-05-04T03:23:55.797Z,12.90
2023-05-04T03:26:23.809Z,14.82
2023-05-04T03:28:51.872Z,12.27
2023-05-04T03:31:19.952Z,13.88
2023-05-04T03:33:47.970Z,14.98
2023-05-04T03:36:16.018Z,15.70
2023-05-04T03:38:45.534Z,11.75
2023-05-04T03:41:13.638Z,15.40
2023-05-04T03:43:42.100Z,12.48
2023-05-04T03:46:10.167Z,10.27
2023-05-04T03:48:38.211Z,10.93
2023-05-04T03:51:07.063Z,13.55
2023-05-04T03:53:35.766Z,15.95
2023-05-04T03:56:05.385Z,11.98
2023-05-04T03:58:33.399Z,17.83
2023-05-04T04:01:03.317Z,12.77
2023-05-04T04:03:31.951Z,18.25
2023-05-04T04:06:00.152Z,19.15
2023-05-04T04:08:28.189Z,11.02
2023-05-04T04:10:56.238Z,15.98
2023-05-04T04:13:25.783Z,12.07
2023-05-04T04:15:53.858Z,13.52
2023-05-04T04:18:24.336Z,14.23
2023-05-04T04:20:52.460Z,10.63
2023-05-04T04:23:21.665Z,20.08
2023-05-04T04:25:49.796Z,22.30
2023-05-04T04:28:17.805Z,16.33
2023-05-04T04:30:47.410Z,19.80
2023-05-04T04:33:16.457Z,19.88
2023-05-04T04:35:44.497Z,18.42
2023-05-04T04:38:12.523Z,16.67
2023-05-04T04:40:40.632Z,8.07
2023-05-04T04:43:08.765Z,13.63
2023-05-04T04:45:36.836Z,16.02
2023-05-04T04:48:06.596Z,15.23
2023-05-04T04:50:34.652Z,12.27
2023-05-04T04:53:02.663Z,18.15
2023-05-04T04:55:30.884Z,15.77
2023-05-04T04:57:58.915Z,11.95
2023-05-04T05:00:27.283Z,22.88
2023-05-04T05:02:55.369Z,11.57
2023-05-04T05:05:24.803Z,13.48
2023-05-04T05:07:53.021Z,13.23
2023-05-04T05:10:22.451Z,16.13
2023-05-04T05:12:50.764Z,16.15
2023-05-04T05:15:19.031Z,13.98
2023-05-04T05:17:47.061Z,15.60
2023-05-04T05:20:15.382Z,14.40
2023-05-04T05:22:44.872Z,23.83
2023-05-04T05:25:13.552Z,8.98
2023-05-04T05:27:41.576Z,20.80
2023-05-04T05:30:09.978Z,13.10
2023-05-04T05:32:38.056Z,15.40
2023-05-04T05:35:06.909Z,20.90
2023-05-04T05:37:34.987Z,14.68
2023-05-04T05:40:07.987Z,13.52
2023-05-04T05:42:36.175Z,13.13
2023-05-04T05:45:04.708Z,14.43
2023-05-04T05:47:32.903Z,19.13
2023-05-04T05:50:00.981Z,12.82
2023-05-04T05:52:29.006Z,12.68
2023-05-04T05:54:57.048Z,10.68
2023-05-04T05:57:26.518Z,9.25
2023-05-04T05:59:55.286Z,12.75
2023-05-04T06:02:23.396Z,12.13
2023-05-04T06:04:51.617Z,10.82
2023-05-04T06:07:19.794Z,14.75
2023-05-04T06:09:47.823Z,16.67
2023-05-04T06:12:17.143Z,12.80
2023-05-04T06:14:47.967Z,15.15
2023-05-04T06:17:17.418Z,13.07
2023-05-04T06:19:46.820Z,16.30
2023-05-04T06:22:16.126Z,14.50
2023-05-04T06:24:44.143Z,12.48
2023-05-04T06:27:12.450Z,21.05
2023-05-04T06:29:41.464Z,17.70
2023-05-04T06:32:11.448Z,11.15
2023-05-04T06:34:39.646Z,10.70
2023-05-04T06:37:07.646Z,17.40
2023-05-04T06:39:35.690Z,13.25
2023-05-04T06:42:03.830Z,16.58
2023-05-04T06:44:31.843Z,16.70
2023-05-04T06:46:59.844Z,20.80
2023-05-04T06:49:32.448Z,15.63
2023-05-04T06:52:01.038Z,13.88
2023-05-04T06:54:29.289Z,8.82
2023-05-04T06:56:57.393Z,13.10
2023-05-04T06:59:25.498Z,12.07
2023-05-04T07:01:53.474Z,18.10
2023-05-04T07:04:23.395Z,12.18
2023-05-04T07:06:53.011Z,8.98
2023-05-04T07:09:21.592Z,14.48
2023-05-04T07:11:49.599Z,10.90
2023-05-04T07:14:17.632Z,9.52
2023-05-04T07:16:45.711Z,9.45
2023-05-04T07:19:14.448Z,11.52
2023-05-04T07:21:42.751Z,13.13
2023-05-04T07:24:12.216Z,10.10
2023-05-04T07:26:40.218Z,13.25
2023-05-04T07:29:08.293Z,12.23
2023-05-04T07:31:36.553Z,9.00
2023-05-04T07:34:04.609Z,10.75
2023-05-04T07:36:35.489Z,19.95
2023-05-04T07:39:03.617Z,9.10
2023-05-04T07:41:33.070Z,5.95
2023-05-04T07:44:01.112Z,11.68
2023-05-04T07:46:29.193Z,11.80
2023-05-04T07:48:57.302Z,12.18
2023-05-04T07:51:25.531Z,10.77
2023-05-04T07:53:53.589Z,13.32
2023-05-04T07:56:21.675Z,10.35
2023-05-04T07:58:51.758Z,10.75
2023-05-04T08:01:19.761Z,12.55
2023-05-04T08:03:48.486Z,6.57
2023-05-04T08:06:16.480Z,10.27
2023-05-04T08:08:44.812Z,8.18
2023-05-04T08:11:20.754Z,16.50
2023-05-04T08:13:50.869Z,11.80
2023-05-04T08:16:18.999Z,11.40
2023-05-04T08:18:47.086Z,9.98
2023-05-04T08:21:15.111Z,10.70
2023-05-04T08:23:43.577Z,12.55
2023-05-04T08:26:11.684Z,7.07
2023-05-04T08:28:40.705Z,10.32
2023-05-04T08:31:11.040Z,8.20
2023-05-04T08:33:39.396Z,14.48
2023-05-04T08:36:08.951Z,3.60
2023-05-04T08:38:37.196Z,11.05
2023-05-04T08:41:05.397Z,8.15
2023-05-04T08:43:35.871Z,5.20
2023-05-04T08:46:04.933Z,10.93
2023-05-04T08:48:35.141Z,8.07
2023-05-04T08:51:04.374Z,9.05
2023-05-04T08:53:33.460Z,8.27
2023-05-04T08:56:04.527Z,15.45
2023-05-04T08:58:33.097Z,5.32
2023-05-04T09:01:02.570Z,9.38
2023-05-04T09:03:31.095Z,9.55
2023-05-04T09:06:01.834Z,12.23
2023-05-04T09:08:29.865Z,8.35
2023-05-04T09:10:57.868Z,13.10
2023-05-04T09:13:26.194Z,8.07
2023-05-04T09:15:57.648Z,12.80
2023-05-04T09:18:26.028Z,10.43
2023-05-04T09:20:54.226Z,8.63
2023-05-04T09:23:23.596Z,8.73
2023-05-04T09:25:52.938Z,9.60
2023-05-04T09:28:22.720Z,5.88
2023-05-04T09:30:51.658Z,5.20
2023-05-04T09:33:27.279Z,6.25
2023-05-04T09:35:55.630Z,11.93
2023-05-04T09:38:28.340Z,8.15
2023-05-04T09:40:56.539Z,7.55
2023-05-04T09:43:25.166Z,6.45
2023-05-04T09:45:53.370Z,12.02
2023-05-04T09:48:25.800Z,7.60
2023-05-04T09:50:54.866Z,8.40
2023-05-04T09:53:24.869Z,10.93
2023-05-04T09:56:05.747Z,9.25
2023-05-04T09:58:35.813Z,5.40
2023-05-04T10:01:03.846Z,7.25
2023-05-04T10:03:32.285Z,9.77
2023-05-04T10:06:00.813Z,5.72
2023-05-04T10:08:29.604Z,7.38
2023-05-04T10:10:59.670Z,8.82
2023-05-04T10:13:28.063Z,11.30
2023-05-04T10:16:12.358Z,7.13
2023-05-04T10:18:54.400Z,6.03
2023-05-04T10:21:30.891Z,13.10
2023-05-04T10:24:31.231Z,5.68
2023-05-04T10:27:07.038Z,10.32
2023-05-04T10:29:35.609Z,5.88
2023-05-04T10:32:04.034Z,6.55
2023-05-04T10:34:33.744Z,5.68
2023-05-04T10:37:02.910Z,6.25
2023-05-04T10:39:32.409Z,6.68
2023-05-04T10:42:05.863Z,9.98
2023-05-04T10:44:36.240Z,12.65
2023-05-04T10:47:06.748Z,4.28
2023-05-04T10:49:35.615Z,5.65
2023-05-04T10:52:11.459Z,8.40
2023-05-04T10:54:41.403Z,4.90
2023-05-04T10:57:12.544Z,8.43
2023-05-04T10:59:41.336Z,3.75
2023-05-04T11:02:09.735Z,7.82
2023-05-04T11:04:37.962Z,7.43
2023-05-04T11:07:08.466Z,5.28
2023-05-04T11:09:38.029Z,6.75
2023-05-04T11:12:06.824Z,5.25
2023-05-04T11:14:39.033Z,6.25
2023-05-04T11:17:20.258Z,7.43
2023-05-04T11:19:55.207Z,4.20
2023-05-04T11:22:23.540Z,5.13
2023-05-04T11:24:51.669Z,12.43
2023-05-04T11:27:24.222Z,3.95
2023-05-04T11:29:57.934Z,3.40
2023-05-04T11:32:36.006Z,6.88
2023-05-04T11:35:04.997Z,7.57
2023-05-04T11:37:39.571Z,8.00
2023-05-04T11:40:11.268Z,7.20
2023-05-04T11:42:40.032Z,3.83
2023-05-04T11:45:12.760Z,3.80
2023-05-04T11:47:41.672Z,7.90
2023-05-04T11:50:11.792Z,5.43
2023-05-04T11:52:40.951Z,7.18
2023-05-04T11:55:10.706Z,6.63
2023-05-04T11:57:39.181Z,6.03
2023-05-04T12:00:10.382Z,5.95
2023-05-04T12:02:38.667Z,23.02
2023-05-04T12:05:14.058Z,8.00
2023-05-04T12:07:42.330Z,4.13
2023-05-04T12:10:10.999Z,4.38
2023-05-04T12:12:39.217Z,7.78
2023-05-04T12:15:10.975Z,5.22
2023-05-04T12:17:42.584Z,3.45
2023-05-04T12:20:11.375Z,3.85
2023-05-04T12:22:39.674Z,5.03
2023-05-04T12:25:09.337Z,5.57
2023-05-04T12:27:42.470Z,6.53
2023-05-04T12:30:13.394Z,2.67
2023-05-04T12:32:41.647Z,3.80
2023-05-04T12:35:10.451Z,4.47
2023-05-04T12:37:39.068Z,6.78
2023-05-04T12:40:21.153Z,4.80
2023-05-04T12:42:56.216Z,3.75
2023-05-04T12:45:25.857Z,4.45
2023-05-04T12:47:54.133Z,4.40
2023-05-04T12:50:23.009Z,5.70
2023-05-04T12:52:51.168Z,3.50
2023-05-04T12:55:19.311Z,2.50
2023-05-04T12:57:47.381Z,1.85
2023-05-04T13:00:16.751Z,4.88
2023-05-04T13:02:46.192Z,5.95
2023-05-04T13:05:15.777Z,5.10
2023-05-04T13:07:45.326Z,8.60
2023-05-04T13:10:13.459Z,3.55
2023-05-04T13:12:43.531Z,7.75
2023-05-04T13:15:15.805Z,7.07
2023-05-04T13:17:45.647Z,5.20
2023-05-04T13:20:14.512Z,5.13
2023-05-04T13:22:42.908Z,7.30
2023-05-04T13:25:11.375Z,2.65
2023-05-04T13:27:39.522Z,6.47
2023-05-04T13:30:09.025Z,9.63
2023-05-04T13:32:37.186Z,10.40
2023-05-04T13:35:08.214Z,3.35
2023-05-04T13:37:38.173Z,4.40
2023-05-04T13:40:07.129Z,3.38
2023-05-04T13:42:37.037Z,6.60
2023-05-04T13:45:06.571Z,2.42
2023-05-04T13:47:36.953Z,5.15
2023-05-04T13:50:07.626Z,2.00
2023-05-04T13:52:35.876Z,5.57
2023-05-04T13:55:04.704Z,5.75
2023-05-04T13:57:33.132Z,3.53
2023-05-04T14:00:07.699Z,7.90
2023-05-04T14:02:36.659Z,6.50
2023-05-04T14:05:07.464Z,2.67
2023-05-04T14:07:35.844Z,6.35
2023-05-04T14:10:04.706Z,8.13
2023-05-04T14:12:32.951Z,4.00
2023-05-04T14:15:01.587Z,2.58
2023-05-04T14:17:29.680Z,2.90
2023-05-04T14:19:58.917Z,6.05
2023-05-04T14:22:29.414Z,5.88
2023-05-04T14:24:57.584Z,3.58
2023-05-04T14:27:49.382Z,3.83
2023-05-04T14:30:17.809Z,5.00
2023-05-04T14:32:45.884Z,1.83
2023-05-04T14:35:14.387Z,5.57
2023-05-04T14:37:43.790Z,1.98
2023-05-04T14:40:12.420Z,2.03
2023-05-04T14:42:40.949Z,6.10
2023-05-04T14:45:10.419Z,1.50
2023-05-04T14:47:38.802Z,5.22
2023-05-04T14:50:08.285Z,4.05
2023-05-04T14:52:37.622Z,4.13
2023-05-04T14:55:08.014Z,4.78
2023-05-04T14:57:36.844Z,6.22
2023-05-04T15:00:09.589Z,4.80
2023-05-04T15:02:39.316Z,4.00
2023-05-04T15:05:10.276Z,5.95
2023-05-04T15:07:38.388Z,4.60
2023-05-04T15:10:09.973Z,3.30
2023-05-04T15:12:39.649Z,5.68
2023-05-04T15:15:08.727Z,4.35
2023-05-04T15:17:36.839Z,2.70
2023-05-04T15:20:05.753Z,4.10
2023-05-04T15:22:33.958Z,4.68
2023-05-04T15:25:02.714Z,4.38
2023-05-04T15:27:32.144Z,3.55
2023-05-04T15:30:00.394Z,5.10
2023-05-04T15:32:28.546Z,3.55
2023-05-04T15:38:09.999Z,4.53
2023-05-04T15:41:26.607Z,1.92
2023-05-04T15:43:56.253Z,3.35
2023-05-04T15:46:27.207Z,9.15
2023-05-04T15:48:55.874Z,6.40
2023-05-04T15:51:24.154Z,5.38
2023-05-04T15:53:52.520Z,3.10
2023-05-04T15:56:21.457Z,4.50
2023-05-04T15:58:49.549Z,5.43
2023-05-04T16:01:19.020Z,3.30
2023-05-04T16:03:47.171Z,3.78
2023-05-04T16:06:15.777Z,7.43
2023-05-04T16:08:43.988Z,4.03
2023-05-04T16:11:12.140Z,5.15
2023-05-04T16:13:40.277Z,3.70
2023-05-04T16:16:09.442Z,5.60
2023-05-04T16:18:38.984Z,3.60
2023-05-04T16:21:08.867Z,3.35
2023-05-04T16:23:37.465Z,4.97
2023-05-04T16:26:05.781Z,4.32
2023-05-04T16:28:34.183Z,5.50
2023-05-04T16:31:05.212Z,3.80
2023-05-04T16:33:33.381Z,5.40
2023-05-04T16:36:02.864Z,2.22
2023-05-04T16:38:30.976Z,5.63
2023-05-04T16:40:59.081Z,5.18
2023-05-04T16:43:27.151Z,3.83
2023-05-04T16:45:55.409Z,4.55
2023-05-04T16:48:23.497Z,2.50
2023-05-04T16:50:51.799Z,2.85
2023-05-04T16:53:21.315Z,11.57
2023-05-04T16:55:50.901Z,3.92
2023-05-04T16:58:19.032Z,3.00
2023-05-04T17:00:47.122Z,4.43
2023-05-04T17:03:15.289Z,2.50
2023-05-04T17:05:43.403Z,9.32
2023-05-04T17:08:12.610Z,6.78
2023-05-04T17:10:42.770Z,4.05
2023-05-04T17:13:10.926Z,3.63
2023-05-04T17:15:39.313Z,5.00
2023-05-04T17:18:07.616Z,8.82
2023-05-04T17:20:35.818Z,8.18
2023-05-04T17:23:04.009Z,4.00
2023-05-04T17:25:32.155Z,6.85
2023-05-04T17:28:01.639Z,8.25
2023-05-04T17:30:29.818Z,11.00
2023-05-04T17:32:58.028Z,4.32
2023-05-04T17:35:26.772Z,3.15
2023-05-04T17:37:57.898Z,10.65
2023-05-04T17:40:27.215Z,6.20
2023-05-04T17:42:55.863Z,2.75
2023-05-04T17:45:25.541Z,3.50
2023-05-04T17:47:53.741Z,7.32
2023-05-04T17:50:22.245Z,3.90
2023-05-04T17:52:53.521Z,3.25
2023-05-04T17:55:23.520Z,5.97
2023-05-04T17:57:51.971Z,4.70
2023-05-04T18:00:20.728Z,3.45
2023-05-04T18:02:50.280Z,3.90
2023-05-04T18:05:18.645Z,6.68
2023-05-04T18:07:46.763Z,3.80
2023-05-04T18:10:14.857Z,10.52
2023-05-04T18:12:42.980Z,7.35
2023-05-04T18:15:12.037Z,11.57
2023-05-04T18:17:40.302Z,8.50
2023-05-04T18:20:12.761Z,6.97
2023-05-04T18:22:41.059Z,9.43
2023-05-04T18:25:10.244Z,14.55
2023-05-04T18:27:38.610Z,8.23
2023-05-04T18:30:08.489Z,4.53
2023-05-04T18:32:36.900Z,6.85
2023-05-04T18:35:05.226Z,10.63
2023-05-04T18:37:34.735Z,4.85
2023-05-04T18:40:04.476Z,6.15
2023-05-04T18:42:32.742Z,4.35
2023-05-04T18:45:00.850Z,4.40
2023-05-04T18:47:29.077Z,7.03
2023-05-04T18:49:57.190Z,8.38
2023-05-04T18:52:25.252Z,7.07
2023-05-04T18:54:55.703Z,7.68
2023-05-04T18:57:23.836Z,4.50
2023-05-04T18:59:51.951Z,8.20
2023-05-04T19:02:20.093Z,5.10
2023-05-04T19:04:48.282Z,5.18
2023-05-04T19:07:17.162Z,4.60
2023-05-04T19:09:46.483Z,5.15
2023-05-04T19:12:15.922Z,7.72
2023-05-04T19:14:44.193Z,8.95
2023-05-04T19:17:14.577Z,6.03
2023-05-04T19:19:42.726Z,3.88
2023-05-04T19:22:11.587Z,10.48
2023-05-04T19:24:40.016Z,4.60
2023-05-04T19:27:08.348Z,8.98
2023-05-04T19:29:37.843Z,4.03
2023-05-04T19:32:19.920Z,6.32
2023-05-04T19:34:51.508Z,8.98
2023-05-04T19:37:19.630Z,7.35
2023-05-04T19:39:47.755Z,5.10
2023-05-04T19:42:16.065Z,4.72
2023-05-04T19:44:45.563Z,13.55
2023-05-04T19:47:13.808Z,14.45
2023-05-04T19:49:41.958Z,19.92
2023-05-04T19:52:10.056Z,12.30
2023-05-04T19:54:41.098Z,11.25
2023-05-04T19:57:10.058Z,4.25
2023-05-04T19:59:38.206Z,3.65
2023-05-04T20:02:08.774Z,5.43
2023-05-04T20:04:36.869Z,8.85
2023-05-04T20:07:05.172Z,12.95
2023-05-04T20:09:33.282Z,6.53
2023-05-04T20:12:01.776Z,9.63
2023-05-04T20:14:29.918Z,9.27
2023-05-04T20:16:58.178Z,12.73
2023-05-04T20:19:27.734Z,10.18
2023-05-04T20:21:55.784Z,10.13
2023-05-04T20:24:24.041Z,7.30
2023-05-04T20:26:52.317Z,7.05
2023-05-04T20:29:23.358Z,9.38
2023-05-04T20:31:51.685Z,7.13
2023-05-04T20:34:19.929Z,7.88
2023-05-04T20:36:49.921Z,7.28
2023-05-04T20:39:18.108Z,8.85
2023-05-04T20:41:46.261Z,6.03
2023-05-04T20:44:14.345Z,7.72
2023-05-04T20:46:42.507Z,8.90
2023-05-04T20:49:10.982Z,6.55
2023-05-04T20:51:39.527Z,5.32
2023-05-04T20:54:09.124Z,6.72
2023-05-04T20:56:37.194Z,6.00
2023-05-04T20:59:05.599Z,11.63
2023-05-04T21:01:34.637Z,6.80
2023-05-04T21:04:02.987Z,9.45
2023-05-04T21:06:31.275Z,6.50
2023-05-04T21:08:59.462Z,12.55
2023-05-04T21:11:28.993Z,6.57
2023-05-04T21:13:57.071Z,9.63
2023-05-04T21:16:26.014Z,9.38
2023-05-04T21:18:54.229Z,8.60
2023-05-04T21:21:22.284Z,8.18
2023-05-04T21:23:50.352Z,10.57
2023-05-04T21:26:18.435Z,13.00
2023-05-04T21:28:47.905Z,13.20
2023-05-04T21:31:16.293Z,12.18
2023-05-04T21:33:44.393Z,14.65
2023-05-04T21:36:13.934Z,10.27
2023-05-04T21:38:42.635Z,8.27
2023-05-04T21:41:12.306Z,19.63
2023-05-04T21:43:40.471Z,7.90
2023-05-04T21:46:12.026Z,10.52
2023-05-04T21:48:40.772Z,13.85
2023-05-04T21:51:09.026Z,8.50
2023-05-04T21:53:37.247Z,9.30
2023-05-04T21:56:08.002Z,10.85
2023-05-04T21:58:37.247Z,22.85
2023-05-04T22:01:05.715Z,8.30
2023-05-04T22:03:35.385Z,8.55
2023-05-04T22:06:03.641Z,12.38
2023-05-04T22:08:31.773Z,14.75
2023-05-04T22:10:59.873Z,10.43
2023-05-04T22:13:28.646Z,8.73
2023-05-04T22:15:56.717Z,7.05
2023-05-04T22:18:24.788Z,8.02
2023-05-04T22:20:54.240Z,7.63
2023-05-04T22:23:22.339Z,8.73
2023-05-04T22:25:50.451Z,9.88
2023-05-04T22:28:18.518Z,6.43
2023-05-04T22:30:46.889Z,9.32
2023-05-04T22:33:15.022Z,9.30
2023-05-04T22:35:43.029Z,6.18
2023-05-04T22:38:14.287Z,15.77
2023-05-04T22:40:43.818Z,6.53
2023-05-04T22:43:11.918Z,9.13
2023-05-04T22:45:40.238Z,10.82
2023-05-04T22:48:08.640Z,9.70
2023-05-04T22:50:36.710Z,15.13
2023-05-04T22:53:04.837Z,7.70
2023-05-04T22:55:34.435Z,8.82
2023-05-04T22:58:02.509Z,9.68
2023-05-04T23:00:30.678Z,8.23
2023-05-04T23:02:59.117Z,8.82
2023-05-04T23:05:27.865Z,7.78
2023-05-04T23:07:55.966Z,7.32
2023-05-04T23:10:25.277Z,6.97
2023-05-04T23:12:54.765Z,10.48
2023-05-04T23:15:24.590Z,8.68
2023-05-04T23:17:52.638Z,9.68
2023-05-04T23:20:21.042Z,8.02
2023-05-04T23:22:49.054Z,10.90
2023-05-04T23:25:17.174Z,8.85
2023-05-04T23:27:46.329Z,11.68
2023-05-04T23:30:15.900Z,6.45
2023-05-04T23:32:43.978Z,7.55
2023-05-04T23:35:12.061Z,8.00
2023-05-04T23:37:40.148Z,9.63
2023-05-04T23:40:10.206Z,13.90
2023-05-04T23:42:38.467Z,7.03
2023-05-04T23:45:07.525Z,7.72
2023-05-04T23:47:37.034Z,14.20
2023-05-04T23:50:05.623Z,10.70
2023-05-04T23:52:34.362Z,5.55
2023-05-04T23:55:02.776Z,8.35
2023-05-04T23:57:30.828Z,9.13
2023-05-04T23:59:58.904Z,7.18
